Overview Statistics Trail Chart Weather Telemetry Raw packets
 

This is the latest recevied weather packets stored in our database for station/object K6CED. If no packets are shown the sender has not sent any weather packets the latest 10 day(s).

<< 47 48 49 50 51 52 53 >>
Time Temp. Humidity Pressure Rain* Wind** Luminosity Snow
1788350807 13.33° C 94% 1018.5 hPa 0 mm - 0 W/m² -
1788350503 13.33° C 94% 1018.6 hPa 0 mm - 0 W/m² -
1788350198 13.89° C 93% 1018.8 hPa 0 mm - 0 W/m² -
1788349894 13.33° C 93% 1018.5 hPa 0 mm - 0 W/m² -
1788349590 13.33° C 92% 1018.7 hPa 0 mm - 0 W/m² -
1788349289 12.78° C 93% 1018.5 hPa 0 mm - 0 W/m² -
1788348984 13.33° C 93% 1018.6 hPa 0 mm - 0 W/m² -
1788348679 13.33° C 93% 1018.6 hPa 0 mm - 0 W/m² -
1788348369 13.33° C 93% 1018.6 hPa 0 mm - 0 W/m² -
1788348066 13.33° C 92% 1018.5 hPa 0 mm - 0 W/m² -
1788347762 13.33° C 92% 1018.7 hPa 0 mm - 0 W/m² -
1788347457 13.33° C 91% 1018.8 hPa 0 mm - 0 W/m² -
1788347153 12.78° C 90% 1018.7 hPa 0 mm - 0 W/m² -
1788346849 12.22° C 87% 1018.8 hPa 0 mm - 0 W/m² -
1788346543 12.22° C 86% 1018.8 hPa 0 mm - 0 W/m² -
1788346243 12.22° C 88% 1018.6 hPa 0 mm - 0 W/m² -
1788345938 12.78° C 89% 1018.8 hPa 0 mm - 0 W/m² -
1788345633 13.33° C 90% 1018.9 hPa 0 mm - 0 W/m² -
1788345328 13.33° C 90% 1018.9 hPa 0 mm - 0 W/m² -
1788345024 12.78° C 88% 1018.9 hPa 0 mm - 0 W/m² -
1788344720 12.78° C 87% 1019 hPa 0 mm - 0 W/m² -
1788344417 12.78° C 87% 1019 hPa 0 mm - 0 W/m² -
1788344112 13.33° C 88% 1019.1 hPa 0 mm - 0 W/m² -
1788343811 13.33° C 88% 1019 hPa 0 mm - 0 W/m² -
1788343506 13.33° C 88% 1019 hPa 0 mm - 0 W/m² -

* Rain latest hour (hover to see other rain measurements)
** Current wind speed in m/s (hover to see current wind gust speed)